createdAt,value
2023-03-27T00:05:36.656Z,7.10
2023-03-27T00:11:56.212Z,6.80
2023-03-27T00:17:52.791Z,6.70
2023-03-27T00:23:37.387Z,6.60
2023-03-27T00:29:30.859Z,6.80
2023-03-27T00:35:48.433Z,6.90
2023-03-27T00:42:08.751Z,7.00
2023-03-27T00:46:24.298Z,6.90
2023-03-27T00:49:32.382Z,6.90
2023-03-27T00:53:50.914Z,6.90
2023-03-27T00:57:46.810Z,6.80
2023-03-27T01:01:27.325Z,6.90
2023-03-27T01:05:44.896Z,6.80
2023-03-27T01:10:57.680Z,6.80
2023-03-27T01:13:36.553Z,6.80
2023-03-27T01:17:47.580Z,6.80
2023-03-27T01:21:26.790Z,6.60
2023-03-27T01:24:27.867Z,6.40
2023-03-27T01:28:42.537Z,6.40
2023-03-27T01:31:51.823Z,6.20
2023-03-27T01:34:46.432Z,5.50
2023-03-27T01:38:44.104Z,5.00
2023-03-27T01:44:47.409Z,4.90
2023-03-27T01:51:35.394Z,4.80
2023-03-27T01:54:31.719Z,4.80
2023-03-27T02:00:19.442Z,4.90
2023-03-27T02:03:30.123Z,5.00
2023-03-27T02:06:26.650Z,5.10
2023-03-27T02:10:27.642Z,5.20
2023-03-27T02:14:13.061Z,5.30
2023-03-27T02:19:30.214Z,5.50
2023-03-27T02:25:32.414Z,5.80
2023-03-27T02:31:53.717Z,6.00
2023-03-27T02:36:30.651Z,6.00
2023-03-27T02:40:14.708Z,6.10
2023-03-27T02:43:11.220Z,6.10
2023-03-27T02:46:03.986Z,6.10
2023-03-27T02:48:39.527Z,6.10
2023-03-27T02:54:16.557Z,6.10
2023-03-27T02:56:49.840Z,6.10
2023-03-27T02:59:39.468Z,6.20
2023-03-27T03:02:20.570Z,6.30
2023-03-27T03:05:21.131Z,6.30
2023-03-27T03:07:48.413Z,6.30
2023-03-27T03:10:15.966Z,6.30
2023-03-27T03:13:51.000Z,6.30
2023-03-27T03:16:55.539Z,6.20
2023-03-27T03:19:24.065Z,6.10
2023-03-27T03:21:51.077Z,6.00
2023-03-27T03:24:22.263Z,5.90
2023-03-27T03:26:51.923Z,5.90
2023-03-27T03:29:21.925Z,5.80
2023-03-27T03:31:55.744Z,5.70
2023-03-27T03:34:22.754Z,5.80
2023-03-27T03:36:55.207Z,5.90
2023-03-27T03:41:42.801Z,5.90
2023-03-27T03:44:46.417Z,5.90
2023-03-27T03:47:17.163Z,5.70
2023-03-27T03:49:43.951Z,5.50
2023-03-27T03:52:10.768Z,5.50
2023-03-27T03:55:04.207Z,5.40
2023-03-27T03:58:44.067Z,5.60
2023-03-27T04:02:44.689Z,5.90
2023-03-27T04:07:41.229Z,6.00
2023-03-27T04:10:54.955Z,6.10
2023-03-27T04:13:51.836Z,6.10
2023-03-27T04:16:29.697Z,6.10
2023-03-27T04:19:01.184Z,6.10
2023-03-27T04:21:42.441Z,6.10
2023-03-27T04:25:36.777Z,6.20
2023-03-27T04:28:21.480Z,6.10
2023-03-27T04:31:14.344Z,6.10
2023-03-27T04:33:57.118Z,6.20
2023-03-27T04:36:42.587Z,6.20
2023-03-27T04:39:10.601Z,6.30
2023-03-27T04:42:16.460Z,6.40
2023-03-27T04:45:55.680Z,6.30
2023-03-27T04:48:39.093Z,5.80
2023-03-27T04:51:58.781Z,5.50
2023-03-27T04:55:20.296Z,5.30
2023-03-27T04:57:47.432Z,5.20
2023-03-27T05:00:24.609Z,5.20
2023-03-27T05:05:09.080Z,5.10
2023-03-27T05:11:27.579Z,5.00
2023-03-27T05:15:45.935Z,4.90
2023-03-27T05:18:12.807Z,5.00
2023-03-27T05:21:11.575Z,5.10
2023-03-27T05:25:39.508Z,5.20
2023-03-27T05:30:30.293Z,5.40
2023-03-27T05:32:59.460Z,5.60
2023-03-27T05:37:33.788Z,5.70
2023-03-27T05:40:04.091Z,5.70
2023-03-27T05:43:40.721Z,5.80
2023-03-27T05:46:09.126Z,5.80
2023-03-27T05:48:39.097Z,5.90
2023-03-27T05:51:27.673Z,5.90
2023-03-27T05:56:27.175Z,5.90
2023-03-27T05:59:14.035Z,6.10
2023-03-27T06:02:41.105Z,6.10
2023-03-27T06:05:14.146Z,6.20
2023-03-27T06:08:13.699Z,6.30
2023-03-27T06:13:34.765Z,6.00
2023-03-27T06:17:41.642Z,5.40
2023-03-27T06:20:15.161Z,4.90
2023-03-27T06:23:06.370Z,4.70
2023-03-27T06:25:44.238Z,4.50
2023-03-27T06:28:14.680Z,4.60
2023-03-27T06:30:42.231Z,4.70
2023-03-27T06:34:04.559Z,4.80
2023-03-27T06:38:23.618Z,5.00
2023-03-27T06:43:24.740Z,5.20
2023-03-27T06:48:25.074Z,5.50
2023-03-27T06:53:41.549Z,6.00
2023-03-27T06:57:01.676Z,6.10
2023-03-27T06:59:50.059Z,6.20
2023-03-27T07:05:26.704Z,6.10
2023-03-27T07:08:58.955Z,6.20
2023-03-27T07:11:57.589Z,6.20
2023-03-27T07:15:01.346Z,6.20
2023-03-27T07:18:09.325Z,6.30
2023-03-27T07:20:57.152Z,6.30
2023-03-27T07:24:33.841Z,6.40
2023-03-27T07:27:04.053Z,6.00
2023-03-27T07:30:14.346Z,5.80
2023-03-27T07:32:58.574Z,5.60
2023-03-27T07:35:49.141Z,5.40
2023-03-27T07:39:20.602Z,5.10
2023-03-27T07:41:52.344Z,4.80
2023-03-27T07:45:25.760Z,4.50
2023-03-27T07:48:35.941Z,4.50
2023-03-27T07:51:53.914Z,4.60
2023-03-27T07:54:48.187Z,4.80
2023-03-27T08:00:16.437Z,5.20
2023-03-27T08:04:27.878Z,5.40
2023-03-27T08:06:55.837Z,5.60
2023-03-27T08:09:22.664Z,5.70
2023-03-27T08:13:25.460Z,5.80
2023-03-27T08:16:15.859Z,6.00
2023-03-27T08:18:42.752Z,6.10
2023-03-27T08:21:21.289Z,6.30
2023-03-27T08:23:48.138Z,6.50
2023-03-27T08:26:16.053Z,6.60
2023-03-27T08:29:36.700Z,6.80
2023-03-27T08:33:20.222Z,6.80
2023-03-27T08:35:51.059Z,6.90
2023-03-27T08:38:57.237Z,7.00
2023-03-27T08:42:00.997Z,7.00
2023-03-27T08:44:28.736Z,7.00
2023-03-27T08:47:37.993Z,6.80
2023-03-27T08:50:46.309Z,6.70
2023-03-27T08:53:53.106Z,6.80
2023-03-27T08:57:32.954Z,7.00
2023-03-27T09:00:19.433Z,7.30
2023-03-27T09:03:22.316Z,7.40
2023-03-27T09:06:11.565Z,7.40
2023-03-27T09:10:18.150Z,7.50
2023-03-27T09:13:29.124Z,7.50
2023-03-27T09:16:22.077Z,7.20
2023-03-27T09:19:20.381Z,7.00
2023-03-27T09:22:52.908Z,6.90
2023-03-27T09:25:50.584Z,6.60
2023-03-27T09:28:56.184Z,6.60
2023-03-27T09:31:32.180Z,6.70
2023-03-27T09:34:16.740Z,6.90
2023-03-27T09:36:50.883Z,7.20
2023-03-27T09:39:22.355Z,7.20
2023-03-27T09:41:51.489Z,7.10
2023-03-27T09:44:26.015Z,7.30
2023-03-27T09:47:04.451Z,7.40
2023-03-27T09:50:21.569Z,7.60
2023-03-27T09:52:55.222Z,7.70
2023-03-27T09:55:31.227Z,7.70
2023-03-27T09:58:15.319Z,7.50
2023-03-27T10:01:09.659Z,7.70
2023-03-27T10:03:40.406Z,7.30
2023-03-27T10:06:09.302Z,7.00
2023-03-27T10:08:53.024Z,7.00
2023-03-27T10:11:32.807Z,7.10
2023-03-27T10:14:16.920Z,7.10
2023-03-27T10:16:46.265Z,7.20
2023-03-27T10:19:38.746Z,6.90
2023-03-27T10:22:14.800Z,6.60
2023-03-27T10:24:58.307Z,6.60
2023-03-27T10:27:33.662Z,6.70
2023-03-27T10:30:03.310Z,6.80
2023-03-27T10:32:47.382Z,6.90
2023-03-27T10:35:57.695Z,6.80
2023-03-27T10:38:25.023Z,6.80
2023-03-27T10:41:28.251Z,6.90
2023-03-27T10:44:04.645Z,7.00
2023-03-27T10:46:31.631Z,7.00
2023-03-27T10:49:10.439Z,7.00
2023-03-27T10:51:50.127Z,7.00
2023-03-27T10:54:20.114Z,7.10
2023-03-27T10:57:37.724Z,7.10
2023-03-27T11:00:18.145Z,7.20
2023-03-27T11:03:05.135Z,7.10
2023-03-27T11:05:38.658Z,7.30
2023-03-27T11:08:32.644Z,7.70
2023-03-27T11:11:21.151Z,7.90
2023-03-27T11:13:49.009Z,8.00
2023-03-27T11:16:21.413Z,8.40
2023-03-27T11:19:09.537Z,8.60
2023-03-27T11:21:41.202Z,8.90
2023-03-27T11:24:20.821Z,9.10
2023-03-27T11:27:14.393Z,9.10
2023-03-27T11:30:00.692Z,9.00
2023-03-27T11:33:19.376Z,8.80
2023-03-27T11:36:49.591Z,8.70
2023-03-27T11:39:22.701Z,9.00
2023-03-27T11:42:05.282Z,9.10
2023-03-27T11:44:32.117Z,9.40
2023-03-27T11:47:43.942Z,9.40
2023-03-27T11:50:22.967Z,9.10
2023-03-27T11:53:02.154Z,8.70
2023-03-27T11:55:34.850Z,8.50
2023-03-27T11:58:13.922Z,7.90
2023-03-27T12:00:58.996Z,7.20
2023-03-27T12:03:46.960Z,6.60
2023-03-27T12:06:26.698Z,6.30
2023-03-27T12:09:01.176Z,6.50
2023-03-27T12:11:28.372Z,6.50
2023-03-27T12:14:17.373Z,6.60
2023-03-27T12:17:19.806Z,6.90
2023-03-27T12:19:52.584Z,7.40
2023-03-27T12:22:41.822Z,7.80
2023-03-27T12:25:27.424Z,7.70
2023-03-27T12:28:03.659Z,7.70
2023-03-27T12:30:37.249Z,7.70
2023-03-27T12:33:18.718Z,7.80
2023-03-27T12:35:47.467Z,8.10
2023-03-27T12:38:23.041Z,8.00
2023-03-27T12:41:02.992Z,8.00
2023-03-27T12:43:31.746Z,8.20
2023-03-27T12:46:31.114Z,8.20
2023-03-27T12:49:14.930Z,8.10
2023-03-27T12:52:02.795Z,8.10
2023-03-27T12:54:34.011Z,8.10
2023-03-27T12:57:06.677Z,8.30
2023-03-27T12:59:48.880Z,8.50
2023-03-27T13:02:18.396Z,8.60
2023-03-27T13:05:27.612Z,8.50
2023-03-27T13:08:07.140Z,8.60
2023-03-27T13:10:52.819Z,8.60
2023-03-27T13:13:44.814Z,8.60
2023-03-27T13:16:15.021Z,8.60
2023-03-27T13:18:52.848Z,8.50
2023-03-27T13:21:36.435Z,8.50
2023-03-27T13:24:25.708Z,8.80
2023-03-27T13:26:52.490Z,9.00
2023-03-27T13:29:21.664Z,8.50
2023-03-27T13:31:49.779Z,7.70
2023-03-27T13:35:38.530Z,7.40
2023-03-27T13:38:53.191Z,7.50
2023-03-27T13:41:45.162Z,7.30
2023-03-27T13:44:30.181Z,7.30
2023-03-27T13:47:33.668Z,7.60
2023-03-27T13:50:47.611Z,8.00
2023-03-27T13:53:25.531Z,8.10
2023-03-27T13:56:26.630Z,8.50
2023-03-27T14:00:18.142Z,8.90
2023-03-27T14:03:26.652Z,9.20
2023-03-27T14:06:11.902Z,9.10
2023-03-27T14:09:13.458Z,9.00
2023-03-27T14:11:45.746Z,9.10
2023-03-27T14:14:21.058Z,9.20
2023-03-27T14:16:51.644Z,9.20
2023-03-27T14:19:30.839Z,9.20
2023-03-27T14:22:14.535Z,9.20
2023-03-27T14:25:00.370Z,9.30
2023-03-27T14:27:27.876Z,8.80
2023-03-27T14:30:23.471Z,8.80
2023-03-27T14:32:50.432Z,9.00
2023-03-27T14:35:37.279Z,9.20
2023-03-27T14:38:23.446Z,9.00
2023-03-27T14:40:52.132Z,8.80
2023-03-27T14:43:19.895Z,9.10
2023-03-27T14:45:46.855Z,9.30
2023-03-27T14:48:33.152Z,9.40
2023-03-27T14:51:04.549Z,9.60
2023-03-27T14:53:36.527Z,9.30
2023-03-27T14:56:11.007Z,9.10
2023-03-27T14:58:58.776Z,9.10
2023-03-27T15:01:26.275Z,8.90
2023-03-27T15:03:53.228Z,9.00
2023-03-27T15:06:23.319Z,9.30
2023-03-27T15:08:55.836Z,9.30
2023-03-27T15:11:25.453Z,9.30
2023-03-27T15:13:52.318Z,9.20
2023-03-27T15:16:34.311Z,9.20
2023-03-27T15:19:12.106Z,9.10
2023-03-27T15:21:59.775Z,9.20
2023-03-27T15:25:22.993Z,9.30
2023-03-27T15:27:55.231Z,9.30
2023-03-27T15:30:45.452Z,9.30
2023-03-27T15:33:35.164Z,9.50
2023-03-27T15:36:06.853Z,9.50
2023-03-27T15:39:21.922Z,9.40
2023-03-27T15:41:52.971Z,8.90
2023-03-27T15:44:21.337Z,8.80
2023-03-27T15:47:30.893Z,8.70
2023-03-27T15:51:12.054Z,8.80
2023-03-27T15:53:49.254Z,9.40
2023-03-27T15:56:21.673Z,9.70
2023-03-27T15:59:02.007Z,9.90
2023-03-27T16:02:14.090Z,9.90
2023-03-27T16:06:51.554Z,9.90
2023-03-27T16:09:23.554Z,10.50
2023-03-27T16:14:31.901Z,10.10
2023-03-27T16:17:31.542Z,9.20
2023-03-27T16:20:12.060Z,9.40
2023-03-27T16:22:39.335Z,9.80
2023-03-27T16:25:52.283Z,9.80
2023-03-27T16:28:22.529Z,10.20
2023-03-27T16:30:51.272Z,10.30
2023-03-27T16:33:21.200Z,10.10
2023-03-27T16:35:48.207Z,10.00
2023-03-27T16:38:15.737Z,9.80
2023-03-27T16:41:56.386Z,9.70
2023-03-27T16:44:34.959Z,10.10
2023-03-27T16:48:25.848Z,10.10
2023-03-27T16:53:06.956Z,9.60
2023-03-27T16:55:56.334Z,10.00
2023-03-27T17:00:55.917Z,10.40
2023-03-27T17:04:43.754Z,10.20
2023-03-27T17:07:10.836Z,9.90
2023-03-27T17:11:25.602Z,9.40
2023-03-27T17:14:03.131Z,9.30
2023-03-27T17:16:31.212Z,8.90
2023-03-27T17:20:16.758Z,8.50
2023-03-27T17:23:27.521Z,8.00
2023-03-27T17:26:02.032Z,7.80
2023-03-27T17:28:52.100Z,7.70
2023-03-27T17:31:32.982Z,7.60
2023-03-27T17:35:34.600Z,7.60
2023-03-27T17:39:13.229Z,7.40
2023-03-27T17:42:16.402Z,7.30
2023-03-27T17:45:24.056Z,7.30
2023-03-27T17:48:49.756Z,7.30
2023-03-27T17:51:21.630Z,7.10
2023-03-27T17:54:07.630Z,7.10
2023-03-27T17:56:35.472Z,7.00
2023-03-27T17:59:10.549Z,7.00
2023-03-27T18:02:57.211Z,7.00
2023-03-27T18:05:24.112Z,6.80
2023-03-27T18:07:52.871Z,6.90
2023-03-27T18:10:20.446Z,6.80
2023-03-27T18:14:27.860Z,6.80
2023-03-27T18:16:56.589Z,6.80
2023-03-27T18:19:25.340Z,6.80
2023-03-27T18:21:52.142Z,6.70
2023-03-27T18:24:19.849Z,6.70
2023-03-27T18:27:11.115Z,6.70
2023-03-27T18:29:38.014Z,6.70
2023-03-27T18:32:41.446Z,6.60
2023-03-27T18:35:10.941Z,6.60
2023-03-27T18:37:42.769Z,6.60
2023-03-27T18:40:16.175Z,6.60
2023-03-27T18:42:46.123Z,6.70
2023-03-27T18:45:15.626Z,6.70
2023-03-27T18:47:49.222Z,6.70
2023-03-27T18:50:17.233Z,6.60
2023-03-27T18:52:44.236Z,6.60
2023-03-27T18:55:11.184Z,6.60
2023-03-27T18:57:38.258Z,6.60
2023-03-27T19:00:08.626Z,6.60
2023-03-27T19:02:36.851Z,6.50
2023-03-27T19:05:04.199Z,6.50
2023-03-27T19:07:31.086Z,6.50
2023-03-27T19:09:58.117Z,6.50
2023-03-27T19:12:25.048Z,6.60
2023-03-27T19:14:51.840Z,6.50
2023-03-27T19:17:21.120Z,6.50
2023-03-27T19:19:47.909Z,6.50
2023-03-27T19:22:14.815Z,6.50
2023-03-27T19:24:41.710Z,6.50
2023-03-27T19:27:08.741Z,6.50
2023-03-27T19:29:51.482Z,6.60
2023-03-27T19:32:18.316Z,6.50
2023-03-27T19:34:45.111Z,6.50
2023-03-27T19:37:12.122Z,6.50
2023-03-27T19:39:38.996Z,6.50
2023-03-27T19:42:05.909Z,6.50
2023-03-27T19:45:03.743Z,6.40
2023-03-27T19:47:42.183Z,6.40
2023-03-27T19:50:14.693Z,6.50
2023-03-27T19:52:42.553Z,6.50
2023-03-27T19:55:09.561Z,6.50
2023-03-27T19:57:36.381Z,6.40
2023-03-27T20:00:06.477Z,6.50
2023-03-27T20:02:33.474Z,6.40
2023-03-27T20:05:00.432Z,6.40
2023-03-27T20:07:27.255Z,6.40
2023-03-27T20:09:54.077Z,6.40
2023-03-27T20:12:23.037Z,6.40
2023-03-27T20:15:07.053Z,6.40
2023-03-27T20:17:36.684Z,6.30
2023-03-27T20:20:05.708Z,6.30
2023-03-27T20:22:36.602Z,6.30
2023-03-27T20:25:10.300Z,6.30
2023-03-27T20:27:37.135Z,6.30
2023-03-27T20:30:04.452Z,6.30
2023-03-27T20:32:31.417Z,6.30
2023-03-27T20:34:58.288Z,6.40
2023-03-27T20:37:27.058Z,6.30
2023-03-27T20:39:54.338Z,6.30
2023-03-27T20:42:23.194Z,6.30
2023-03-27T20:44:58.328Z,6.20
2023-03-27T20:47:25.389Z,6.10
2023-03-27T20:49:52.292Z,6.20
2023-03-27T20:52:19.563Z,6.10
2023-03-27T20:54:47.806Z,6.00
2023-03-27T20:57:14.892Z,6.10
2023-03-27T20:59:41.768Z,6.10
2023-03-27T21:02:18.807Z,6.10
2023-03-27T21:04:46.694Z,6.10
2023-03-27T21:07:15.770Z,6.10
2023-03-27T21:09:42.954Z,5.90
2023-03-27T21:12:09.935Z,5.80
2023-03-27T21:14:36.809Z,5.70
2023-03-27T21:17:03.640Z,5.90
2023-03-27T21:19:30.489Z,5.90
2023-03-27T21:21:57.540Z,5.90
2023-03-27T21:24:24.385Z,5.90
2023-03-27T21:26:51.374Z,5.80
2023-03-27T21:29:18.419Z,5.70
2023-03-27T21:31:45.446Z,5.60
2023-03-27T21:34:12.337Z,5.50
2023-03-27T21:36:39.191Z,5.40
2023-03-27T21:39:06.095Z,5.30
2023-03-27T21:41:32.941Z,5.30
2023-03-27T21:43:59.719Z,5.30
2023-03-27T21:46:27.682Z,5.30
2023-03-27T21:48:54.572Z,5.30
2023-03-27T21:51:21.435Z,5.20
2023-03-27T21:53:48.351Z,5.10
2023-03-27T21:56:15.370Z,5.00
2023-03-27T21:58:42.160Z,4.90
2023-03-27T22:01:08.983Z,4.80
2023-03-27T22:03:35.891Z,4.60
2023-03-27T22:06:12.376Z,4.50
2023-03-27T22:08:41.184Z,4.50
2023-03-27T22:11:08.209Z,4.30
2023-03-27T22:13:37.240Z,4.20
2023-03-27T22:16:14.184Z,4.20
2023-03-27T22:18:41.309Z,4.10
2023-03-27T22:21:32.457Z,4.00
2023-03-27T22:23:59.817Z,4.00
2023-03-27T22:26:29.000Z,3.90
2023-03-27T22:28:57.171Z,3.90
2023-03-27T22:31:24.229Z,3.80
2023-03-27T22:33:51.148Z,3.80
2023-03-27T22:36:19.479Z,3.70
2023-03-27T22:38:46.538Z,3.70
2023-03-27T22:41:13.633Z,3.60
2023-03-27T22:43:40.524Z,3.60
2023-03-27T22:46:15.428Z,3.50
2023-03-27T22:48:42.314Z,3.40
2023-03-27T22:51:10.383Z,3.40
2023-03-27T22:53:37.272Z,3.30
2023-03-27T22:56:04.490Z,3.30
2023-03-27T22:58:31.438Z,3.30
2023-03-27T23:00:58.380Z,3.40
2023-03-27T23:03:27.494Z,3.40
2023-03-27T23:05:54.728Z,3.40
2023-03-27T23:08:24.077Z,3.40
2023-03-27T23:11:04.286Z,3.30
2023-03-27T23:13:32.267Z,3.30
2023-03-27T23:15:59.374Z,3.30
2023-03-27T23:18:27.182Z,3.20
2023-03-27T23:20:58.924Z,3.20
2023-03-27T23:23:26.486Z,3.20
2023-03-27T23:25:54.033Z,3.20
2023-03-27T23:28:21.118Z,3.10
2023-03-27T23:31:01.422Z,3.10
2023-03-27T23:33:31.172Z,3.00
2023-03-27T23:36:11.905Z,3.00
2023-03-27T23:38:39.002Z,3.00
2023-03-27T23:41:06.723Z,2.90
2023-03-27T23:43:33.720Z,2.90
2023-03-27T23:46:00.758Z,2.90
2023-03-27T23:48:28.677Z,2.80
2023-03-27T23:50:56.120Z,2.80
2023-03-27T23:53:25.808Z,2.80
2023-03-27T23:55:53.442Z,2.70
2023-03-27T23:58:20.339Z,2.70
